Terminal Aerodrome Forecast
Issued by NWS

Home | Current Version | Previous Version | Text Only | Print | Product List | Glossary On
Versions: 1 2 3 4 5 6 7 8 9 10 11 12 13 14
000
FTUS42 TJSJ 291937 AAA
TAFJMZ
TAF AMD
TJMZ 291937Z 2920/3018 27012KT P6SM SCT030 BKN040
      TEMPO 2920/2921 VRB10G25KT 3SM TSRA FEW020 BKN030CB BKN040
     FM300130 06005KT P6SM SCT025 SCT150
     FM301330 28006KT P6SM SCT030 SCT150
     FM301630 27010KT P6SM VCTS SCT025CB BKN040
      AMD NOT SKED AFT 292100=

USA.gov is the U.S. government's official web portal to all federal, state and local government web resources and services.